sensor_id;sensor_type;location;lat;lon;timestamp;temperature;humidity
19799;DHT22;10059;59.850;10.454;2023-05-18T00:00:12;7.00;91.00
19799;DHT22;10059;59.850;10.454;2023-05-18T00:02:40;6.90;91.50
19799;DHT22;10059;59.850;10.454;2023-05-18T00:05:07;6.80;92.00
19799;DHT22;10059;59.850;10.454;2023-05-18T00:07:34;6.50;93.30
19799;DHT22;10059;59.850;10.454;2023-05-18T00:10:03;6.00;95.00
19799;DHT22;10059;59.850;10.454;2023-05-18T00:12:30;5.80;96.50
19799;DHT22;10059;59.850;10.454;2023-05-18T00:14:57;5.70;97.90
19799;DHT22;10059;59.850;10.454;2023-05-18T00:17:24;5.50;99.10
19799;DHT22;10059;59.850;10.454;2023-05-18T00:19:51;5.40;99.90
19799;DHT22;10059;59.850;10.454;2023-05-18T00:22:18;5.30;99.90
19799;DHT22;10059;59.850;10.454;2023-05-18T00:24:45;5.40;99.90
19799;DHT22;10059;59.850;10.454;2023-05-18T00:27:13;5.30;99.90
19799;DHT22;10059;59.850;10.454;2023-05-18T00:29:40;5.40;99.90
19799;DHT22;10059;59.850;10.454;2023-05-18T00:32:07;5.30;99.90
19799;DHT22;10059;59.850;10.454;2023-05-18T00:34:34;5.20;99.90
19799;DHT22;10059;59.850;10.454;2023-05-18T00:37:01;5.20;99.90
19799;DHT22;10059;59.850;10.454;2023-05-18T00:39:28;5.00;99.90
19799;DHT22;10059;59.850;10.454;2023-05-18T00:41:55;5.00;99.90
19799;DHT22;10059;59.850;10.454;2023-05-18T00:44:23;5.20;99.90
19799;DHT22;10059;59.850;10.454;2023-05-18T00:46:50;5.00;99.90
19799;DHT22;10059;59.850;10.454;2023-05-18T00:49:17;4.90;99.90
19799;DHT22;10059;59.850;10.454;2023-05-18T00:51:44;4.80;99.90
19799;DHT22;10059;59.850;10.454;2023-05-18T00:54:12;4.80;99.90
19799;DHT22;10059;59.850;10.454;2023-05-18T00:56:39;4.70;99.90
19799;DHT22;10059;59.850;10.454;2023-05-18T00:59:07;4.60;99.90
19799;DHT22;10059;59.850;10.454;2023-05-18T01:01:37;4.60;99.90
19799;DHT22;10059;59.850;10.454;2023-05-18T01:04:08;4.40;99.90
19799;DHT22;10059;59.850;10.454;2023-05-18T01:06:38;4.20;99.90
19799;DHT22;10059;59.850;10.454;2023-05-18T01:09:08;4.10;99.90
19799;DHT22;10059;59.850;10.454;2023-05-18T01:11:43;4.00;99.90
19799;DHT22;10059;59.850;10.454;2023-05-18T01:14:17;4.00;99.90
19799;DHT22;10059;59.850;10.454;2023-05-18T01:16:53;4.00;99.90
19799;DHT22;10059;59.850;10.454;2023-05-18T01:22:37;4.00;99.90
19799;DHT22;10059;59.850;10.454;2023-05-18T01:25:15;3.90;99.90
19799;DHT22;10059;59.850;10.454;2023-05-18T01:27:45;3.80;99.90
19799;DHT22;10059;59.850;10.454;2023-05-18T01:30:15;3.80;99.90
19799;DHT22;10059;59.850;10.454;2023-05-18T01:32:44;3.80;99.90
19799;DHT22;10059;59.850;10.454;2023-05-18T01:35:11;3.70;99.90
19799;DHT22;10059;59.850;10.454;2023-05-18T01:37:38;3.60;99.90
19799;DHT22;10059;59.850;10.454;2023-05-18T01:40:07;3.70;99.90
19799;DHT22;10059;59.850;10.454;2023-05-18T01:42:43;3.70;99.90
19799;DHT22;10059;59.850;10.454;2023-05-18T01:45:16;3.80;99.90
19799;DHT22;10059;59.850;10.454;2023-05-18T01:47:47;3.90;99.90
19799;DHT22;10059;59.850;10.454;2023-05-18T01:50:17;4.00;99.90
19799;DHT22;10059;59.850;10.454;2023-05-18T01:52:57;4.00;99.90
19799;DHT22;10059;59.850;10.454;2023-05-18T01:55:28;4.10;99.90
19799;DHT22;10059;59.850;10.454;2023-05-18T01:57:56;4.40;99.90
19799;DHT22;10059;59.850;10.454;2023-05-18T02:00:25;4.70;99.90
19799;DHT22;10059;59.850;10.454;2023-05-18T02:02:52;4.90;99.90
19799;DHT22;10059;59.850;10.454;2023-05-18T02:05:19;5.00;99.90
19799;DHT22;10059;59.850;10.454;2023-05-18T02:07:45;5.10;99.90
19799;DHT22;10059;59.850;10.454;2023-05-18T02:10:12;5.30;99.90
19799;DHT22;10059;59.850;10.454;2023-05-18T02:12:39;5.40;99.90
19799;DHT22;10059;59.850;10.454;2023-05-18T02:15:07;5.30;99.90
19799;DHT22;10059;59.850;10.454;2023-05-18T02:17:35;5.40;99.90
19799;DHT22;10059;59.850;10.454;2023-05-18T02:20:04;5.40;99.90
19799;DHT22;10059;59.850;10.454;2023-05-18T02:22:32;5.50;99.90
19799;DHT22;10059;59.850;10.454;2023-05-18T02:24:59;5.60;99.90
19799;DHT22;10059;59.850;10.454;2023-05-18T02:27:26;5.60;99.90
19799;DHT22;10059;59.850;10.454;2023-05-18T02:29:53;5.50;99.90
19799;DHT22;10059;59.850;10.454;2023-05-18T02:32:21;5.40;99.90
19799;DHT22;10059;59.850;10.454;2023-05-18T02:34:51;5.30;99.90
19799;DHT22;10059;59.850;10.454;2023-05-18T02:37:18;5.20;99.90
19799;DHT22;10059;59.850;10.454;2023-05-18T02:39:47;5.20;99.90
19799;DHT22;10059;59.850;10.454;2023-05-18T02:42:14;5.10;99.90
19799;DHT22;10059;59.850;10.454;2023-05-18T02:44:41;5.00;99.90
19799;DHT22;10059;59.850;10.454;2023-05-18T02:47:08;5.10;99.90
19799;DHT22;10059;59.850;10.454;2023-05-18T02:49:35;5.10;99.90
19799;DHT22;10059;59.850;10.454;2023-05-18T02:52:03;5.20;99.90
19799;DHT22;10059;59.850;10.454;2023-05-18T02:54:30;5.20;99.90
19799;DHT22;10059;59.850;10.454;2023-05-18T02:56:57;5.10;99.90
19799;DHT22;10059;59.850;10.454;2023-05-18T02:59:24;5.10;99.90
19799;DHT22;10059;59.850;10.454;2023-05-18T03:01:51;5.20;99.90
19799;DHT22;10059;59.850;10.454;2023-05-18T03:04:18;5.30;99.90
19799;DHT22;10059;59.850;10.454;2023-05-18T03:06:46;5.40;99.90
19799;DHT22;10059;59.850;10.454;2023-05-18T03:09:18;5.40;99.90
19799;DHT22;10059;59.850;10.454;2023-05-18T03:11:45;5.30;99.90
19799;DHT22;10059;59.850;10.454;2023-05-18T03:14:12;5.40;99.90
19799;DHT22;10059;59.850;10.454;2023-05-18T03:16:39;5.40;99.90
19799;DHT22;10059;59.850;10.454;2023-05-18T03:19:05;5.30;99.90
19799;DHT22;10059;59.850;10.454;2023-05-18T03:21:32;5.30;99.90
19799;DHT22;10059;59.850;10.454;2023-05-18T03:24:00;5.20;99.90
19799;DHT22;10059;59.850;10.454;2023-05-18T03:26:29;5.30;99.90
19799;DHT22;10059;59.850;10.454;2023-05-18T03:28:56;5.10;99.90
19799;DHT22;10059;59.850;10.454;2023-05-18T03:31:24;5.10;99.90
19799;DHT22;10059;59.850;10.454;2023-05-18T03:33:51;4.80;99.90
19799;DHT22;10059;59.850;10.454;2023-05-18T03:36:18;4.60;99.90
19799;DHT22;10059;59.850;10.454;2023-05-18T03:38:47;4.70;99.90
19799;DHT22;10059;59.850;10.454;2023-05-18T03:41:13;4.80;99.90
19799;DHT22;10059;59.850;10.454;2023-05-18T03:43:42;4.90;99.90
19799;DHT22;10059;59.850;10.454;2023-05-18T03:46:08;5.00;99.90
19799;DHT22;10059;59.850;10.454;2023-05-18T03:48:35;4.90;99.90
19799;DHT22;10059;59.850;10.454;2023-05-18T03:51:02;5.20;99.90
19799;DHT22;10059;59.850;10.454;2023-05-18T03:53:30;5.10;99.90
19799;DHT22;10059;59.850;10.454;2023-05-18T03:55:58;5.30;99.90
19799;DHT22;10059;59.850;10.454;2023-05-18T03:58:25;5.40;99.90
19799;DHT22;10059;59.850;10.454;2023-05-18T04:00:53;5.50;99.90
19799;DHT22;10059;59.850;10.454;2023-05-18T04:03:20;5.50;99.90
19799;DHT22;10059;59.850;10.454;2023-05-18T04:05:49;5.30;99.90
19799;DHT22;10059;59.850;10.454;2023-05-18T04:08:17;5.20;99.90
19799;DHT22;10059;59.850;10.454;2023-05-18T04:10:44;5.40;99.90
19799;DHT22;10059;59.850;10.454;2023-05-18T04:13:12;5.70;99.90
19799;DHT22;10059;59.850;10.454;2023-05-18T04:15:38;6.00;99.90
19799;DHT22;10059;59.850;10.454;2023-05-18T04:18:07;6.30;99.90
19799;DHT22;10059;59.850;10.454;2023-05-18T04:20:34;6.40;99.90
19799;DHT22;10059;59.850;10.454;2023-05-18T04:23:02;6.50;99.90
19799;DHT22;10059;59.850;10.454;2023-05-18T04:25:30;6.60;99.90
19799;DHT22;10059;59.850;10.454;2023-05-18T04:27:56;6.70;99.90
19799;DHT22;10059;59.850;10.454;2023-05-18T04:30:26;6.90;99.90
19799;DHT22;10059;59.850;10.454;2023-05-18T04:32:54;7.20;99.90
19799;DHT22;10059;59.850;10.454;2023-05-18T04:35:24;7.20;99.90
19799;DHT22;10059;59.850;10.454;2023-05-18T04:37:51;7.30;99.90
19799;DHT22;10059;59.850;10.454;2023-05-18T04:40:19;7.50;99.90
19799;DHT22;10059;59.850;10.454;2023-05-18T04:42:45;7.70;99.90
19799;DHT22;10059;59.850;10.454;2023-05-18T04:45:13;7.70;99.90
19799;DHT22;10059;59.850;10.454;2023-05-18T04:47:42;8.10;99.90
19799;DHT22;10059;59.850;10.454;2023-05-18T04:50:11;8.20;99.90
19799;DHT22;10059;59.850;10.454;2023-05-18T04:52:40;8.50;99.90
19799;DHT22;10059;59.850;10.454;2023-05-18T04:55:14;8.10;99.90
19799;DHT22;10059;59.850;10.454;2023-05-18T04:57:41;8.30;99.90
19799;DHT22;10059;59.850;10.454;2023-05-18T05:00:10;8.50;99.90
19799;DHT22;10059;59.850;10.454;2023-05-18T05:02:37;8.50;99.90
19799;DHT22;10059;59.850;10.454;2023-05-18T05:05:05;8.50;99.90
19799;DHT22;10059;59.850;10.454;2023-05-18T05:07:32;8.60;99.90
19799;DHT22;10059;59.850;10.454;2023-05-18T05:10:01;8.80;99.90
19799;DHT22;10059;59.850;10.454;2023-05-18T05:12:28;9.00;99.90
19799;DHT22;10059;59.850;10.454;2023-05-18T05:14:55;8.90;99.90
19799;DHT22;10059;59.850;10.454;2023-05-18T05:17:22;9.00;99.90
19799;DHT22;10059;59.850;10.454;2023-05-18T05:19:49;9.40;99.90
19799;DHT22;10059;59.850;10.454;2023-05-18T05:22:16;9.50;99.90
19799;DHT22;10059;59.850;10.454;2023-05-18T05:24:44;9.30;99.90
19799;DHT22;10059;59.850;10.454;2023-05-18T05:27:12;9.40;99.90
19799;DHT22;10059;59.850;10.454;2023-05-18T05:29:39;9.50;99.90
19799;DHT22;10059;59.850;10.454;2023-05-18T05:32:07;9.70;99.90
19799;DHT22;10059;59.850;10.454;2023-05-18T05:34:34;10.00;99.90
19799;DHT22;10059;59.850;10.454;2023-05-18T05:37:02;10.20;99.90
19799;DHT22;10059;59.850;10.454;2023-05-18T05:39:28;10.00;99.90
19799;DHT22;10059;59.850;10.454;2023-05-18T05:41:55;9.60;99.90
19799;DHT22;10059;59.850;10.454;2023-05-18T05:44:24;9.70;99.90
19799;DHT22;10059;59.850;10.454;2023-05-18T05:46:50;10.10;99.90
19799;DHT22;10059;59.850;10.454;2023-05-18T05:49:17;10.30;99.90
19799;DHT22;10059;59.850;10.454;2023-05-18T05:51:44;10.70;99.90
19799;DHT22;10059;59.850;10.454;2023-05-18T05:54:11;10.70;99.90
19799;DHT22;10059;59.850;10.454;2023-05-18T05:56:38;10.50;99.90
19799;DHT22;10059;59.850;10.454;2023-05-18T05:59:05;10.50;99.90
19799;DHT22;10059;59.850;10.454;2023-05-18T06:01:33;10.80;99.90
19799;DHT22;10059;59.850;10.454;2023-05-18T06:04:00;10.80;99.90
19799;DHT22;10059;59.850;10.454;2023-05-18T06:06:27;11.20;99.90
19799;DHT22;10059;59.850;10.454;2023-05-18T06:08:54;11.20;99.90
19799;DHT22;10059;59.850;10.454;2023-05-18T06:11:21;11.40;99.90
19799;DHT22;10059;59.850;10.454;2023-05-18T06:13:48;11.90;99.90
19799;DHT22;10059;59.850;10.454;2023-05-18T06:16:16;11.70;99.90
19799;DHT22;10059;59.850;10.454;2023-05-18T06:18:44;11.80;99.90
19799;DHT22;10059;59.850;10.454;2023-05-18T06:21:12;11.50;99.90
19799;DHT22;10059;59.850;10.454;2023-05-18T06:23:39;11.60;99.90
19799;DHT22;10059;59.850;10.454;2023-05-18T06:26:06;12.10;99.90
19799;DHT22;10059;59.850;10.454;2023-05-18T06:28:33;12.60;99.90
19799;DHT22;10059;59.850;10.454;2023-05-18T06:31:00;12.70;98.80
19799;DHT22;10059;59.850;10.454;2023-05-18T06:33:27;12.90;98.90
19799;DHT22;10059;59.850;10.454;2023-05-18T06:35:55;13.10;98.10
19799;DHT22;10059;59.850;10.454;2023-05-18T06:38:22;12.40;97.30
19799;DHT22;10059;59.850;10.454;2023-05-18T06:40:49;12.70;98.30
19799;DHT22;10059;59.850;10.454;2023-05-18T06:43:15;12.70;96.90
19799;DHT22;10059;59.850;10.454;2023-05-18T06:45:42;12.70;97.60
19799;DHT22;10059;59.850;10.454;2023-05-18T06:48:09;12.80;98.00
19799;DHT22;10059;59.850;10.454;2023-05-18T06:50:36;12.40;97.60
19799;DHT22;10059;59.850;10.454;2023-05-18T06:53:04;12.30;98.40
19799;DHT22;10059;59.850;10.454;2023-05-18T06:55:31;12.40;98.30
19799;DHT22;10059;59.850;10.454;2023-05-18T06:57:58;12.30;97.90
19799;DHT22;10059;59.850;10.454;2023-05-18T07:00:25;12.10;97.50
19799;DHT22;10059;59.850;10.454;2023-05-18T07:02:52;12.40;99.40
19799;DHT22;10059;59.850;10.454;2023-05-18T07:05:18;12.50;98.40
19799;DHT22;10059;59.850;10.454;2023-05-18T07:07:45;12.70;96.70
19799;DHT22;10059;59.850;10.454;2023-05-18T07:10:14;12.90;98.00
19799;DHT22;10059;59.850;10.454;2023-05-18T07:12:40;13.20;97.20
19799;DHT22;10059;59.850;10.454;2023-05-18T07:15:08;13.10;95.60
19799;DHT22;10059;59.850;10.454;2023-05-18T07:17:36;12.60;96.30
19799;DHT22;10059;59.850;10.454;2023-05-18T07:20:03;12.70;96.50
19799;DHT22;10059;59.850;10.454;2023-05-18T07:22:31;12.60;96.60
19799;DHT22;10059;59.850;10.454;2023-05-18T07:24:58;12.50;97.40
19799;DHT22;10059;59.850;10.454;2023-05-18T07:27:26;12.20;95.10
19799;DHT22;10059;59.850;10.454;2023-05-18T07:29:53;12.60;97.50
19799;DHT22;10059;59.850;10.454;2023-05-18T07:32:20;12.80;97.50
19799;DHT22;10059;59.850;10.454;2023-05-18T07:34:47;12.80;95.40
19799;DHT22;10059;59.850;10.454;2023-05-18T07:37:14;12.60;93.70
19799;DHT22;10059;59.850;10.454;2023-05-18T07:39:41;12.70;93.80
19799;DHT22;10059;59.850;10.454;2023-05-18T07:42:08;12.90;93.60
19799;DHT22;10059;59.850;10.454;2023-05-18T07:44:37;13.60;94.80
19799;DHT22;10059;59.850;10.454;2023-05-18T07:47:04;13.90;93.10
19799;DHT22;10059;59.850;10.454;2023-05-18T07:49:30;13.80;94.20
19799;DHT22;10059;59.850;10.454;2023-05-18T07:51:57;13.90;92.00
19799;DHT22;10059;59.850;10.454;2023-05-18T07:54:24;13.80;92.10
19799;DHT22;10059;59.850;10.454;2023-05-18T07:56:52;14.00;91.20
19799;DHT22;10059;59.850;10.454;2023-05-18T07:59:19;13.90;91.10
19799;DHT22;10059;59.850;10.454;2023-05-18T08:01:47;13.40;90.60
19799;DHT22;10059;59.850;10.454;2023-05-18T08:04:14;13.60;91.50
19799;DHT22;10059;59.850;10.454;2023-05-18T08:06:41;13.20;91.20
19799;DHT22;10059;59.850;10.454;2023-05-18T08:09:08;13.70;90.60
19799;DHT22;10059;59.850;10.454;2023-05-18T08:11:35;13.90;90.20
19799;DHT22;10059;59.850;10.454;2023-05-18T08:14:02;13.90;89.50
19799;DHT22;10059;59.850;10.454;2023-05-18T08:16:28;13.80;90.20
19799;DHT22;10059;59.850;10.454;2023-05-18T08:19:00;13.60;90.20
19799;DHT22;10059;59.850;10.454;2023-05-18T08:21:27;14.50;90.70
19799;DHT22;10059;59.850;10.454;2023-05-18T08:23:54;15.30;89.10
19799;DHT22;10059;59.850;10.454;2023-05-18T08:26:20;15.40;88.40
19799;DHT22;10059;59.850;10.454;2023-05-18T08:28:49;15.50;86.60
19799;DHT22;10059;59.850;10.454;2023-05-18T08:31:15;15.00;88.00
19799;DHT22;10059;59.850;10.454;2023-05-18T08:33:42;15.40;87.90
19799;DHT22;10059;59.850;10.454;2023-05-18T08:36:11;15.00;88.60
19799;DHT22;10059;59.850;10.454;2023-05-18T08:38:37;15.00;83.10
19799;DHT22;10059;59.850;10.454;2023-05-18T08:41:11;15.00;85.30
19799;DHT22;10059;59.850;10.454;2023-05-18T08:43:41;16.10;88.20
19799;DHT22;10059;59.850;10.454;2023-05-18T08:46:14;16.80;85.90
19799;DHT22;10059;59.850;10.454;2023-05-18T08:48:43;15.90;84.20
19799;DHT22;10059;59.850;10.454;2023-05-18T08:51:12;15.80;85.60
19799;DHT22;10059;59.850;10.454;2023-05-18T08:53:47;16.00;81.00
19799;DHT22;10059;59.850;10.454;2023-05-18T08:56:17;17.20;81.10
19799;DHT22;10059;59.850;10.454;2023-05-18T08:58:47;17.50;75.50
19799;DHT22;10059;59.850;10.454;2023-05-18T09:01:16;16.00;75.50
19799;DHT22;10059;59.850;10.454;2023-05-18T09:03:43;16.50;75.00
19799;DHT22;10059;59.850;10.454;2023-05-18T09:06:15;16.30;74.80
19799;DHT22;10059;59.850;10.454;2023-05-18T09:08:43;16.70;75.00
19799;DHT22;10059;59.850;10.454;2023-05-18T09:11:11;16.80;74.10
19799;DHT22;10059;59.850;10.454;2023-05-18T09:13:39;16.90;73.90
19799;DHT22;10059;59.850;10.454;2023-05-18T09:16:06;17.00;73.30
19799;DHT22;10059;59.850;10.454;2023-05-18T09:18:33;16.70;74.20
19799;DHT22;10059;59.850;10.454;2023-05-18T09:21:00;17.20;71.10
19799;DHT22;10059;59.850;10.454;2023-05-18T09:23:28;17.30;71.70
19799;DHT22;10059;59.850;10.454;2023-05-18T09:25:56;17.40;72.40
19799;DHT22;10059;59.850;10.454;2023-05-18T09:28:25;17.10;71.60
19799;DHT22;10059;59.850;10.454;2023-05-18T09:30:52;17.30;72.00
19799;DHT22;10059;59.850;10.454;2023-05-18T09:33:20;17.40;70.80
19799;DHT22;10059;59.850;10.454;2023-05-18T09:35:49;17.50;71.70
19799;DHT22;10059;59.850;10.454;2023-05-18T09:38:16;16.80;71.30
19799;DHT22;10059;59.850;10.454;2023-05-18T09:40:48;17.10;69.50
19799;DHT22;10059;59.850;10.454;2023-05-18T09:43:16;16.40;71.50
19799;DHT22;10059;59.850;10.454;2023-05-18T09:45:45;17.80;71.10
19799;DHT22;10059;59.850;10.454;2023-05-18T09:48:13;18.80;69.00
19799;DHT22;10059;59.850;10.454;2023-05-18T09:50:42;18.80;69.80
19799;DHT22;10059;59.850;10.454;2023-05-18T09:53:11;18.20;67.50
19799;DHT22;10059;59.850;10.454;2023-05-18T09:55:44;18.00;67.70
19799;DHT22;10059;59.850;10.454;2023-05-18T09:58:13;16.80;67.60
19799;DHT22;10059;59.850;10.454;2023-05-18T10:00:41;17.90;69.70
19799;DHT22;10059;59.850;10.454;2023-05-18T10:03:19;18.40;70.20
19799;DHT22;10059;59.850;10.454;2023-05-18T10:05:46;19.50;69.20
19799;DHT22;10059;59.850;10.454;2023-05-18T10:08:14;19.60;65.60
19799;DHT22;10059;59.850;10.454;2023-05-18T10:10:42;19.20;66.70
19799;DHT22;10059;59.850;10.454;2023-05-18T10:13:14;17.70;65.70
19799;DHT22;10059;59.850;10.454;2023-05-18T10:15:48;17.90;71.10
19799;DHT22;10059;59.850;10.454;2023-05-18T10:18:20;18.50;68.40
19799;DHT22;10059;59.850;10.454;2023-05-18T10:20:48;18.80;70.30
19799;DHT22;10059;59.850;10.454;2023-05-18T10:23:17;19.50;67.20
19799;DHT22;10059;59.850;10.454;2023-05-18T10:25:46;19.60;64.80
19799;DHT22;10059;59.850;10.454;2023-05-18T10:28:18;20.00;66.50
19799;DHT22;10059;59.850;10.454;2023-05-18T10:30:54;19.70;63.80
19799;DHT22;10059;59.850;10.454;2023-05-18T10:33:22;20.10;64.90
19799;DHT22;10059;59.850;10.454;2023-05-18T10:35:50;20.10;63.50
19799;DHT22;10059;59.850;10.454;2023-05-18T10:38:22;20.10;65.00
19799;DHT22;10059;59.850;10.454;2023-05-18T10:40:50;19.50;65.50
19799;DHT22;10059;59.850;10.454;2023-05-18T10:43:20;19.80;63.00
19799;DHT22;10059;59.850;10.454;2023-05-18T10:45:52;19.00;64.10
19799;DHT22;10059;59.850;10.454;2023-05-18T10:48:20;19.10;66.20
19799;DHT22;10059;59.850;10.454;2023-05-18T10:50:47;18.60;65.80
19799;DHT22;10059;59.850;10.454;2023-05-18T10:53:16;18.10;65.30
19799;DHT22;10059;59.850;10.454;2023-05-18T10:55:44;18.50;65.70
19799;DHT22;10059;59.850;10.454;2023-05-18T10:58:13;17.60;69.90
19799;DHT22;10059;59.850;10.454;2023-05-18T11:00:45;17.70;71.10
19799;DHT22;10059;59.850;10.454;2023-05-18T11:03:15;17.80;70.50
19799;DHT22;10059;59.850;10.454;2023-05-18T11:05:42;18.60;68.70
19799;DHT22;10059;59.850;10.454;2023-05-18T11:08:09;18.80;64.70
19799;DHT22;10059;59.850;10.454;2023-05-18T11:10:41;18.80;65.90
19799;DHT22;10059;59.850;10.454;2023-05-18T11:13:08;19.20;65.30
19799;DHT22;10059;59.850;10.454;2023-05-18T11:16:02;19.40;66.90
19799;DHT22;10059;59.850;10.454;2023-05-18T11:18:43;19.10;67.10
19799;DHT22;10059;59.850;10.454;2023-05-18T11:21:27;18.70;68.40
19799;DHT22;10059;59.850;10.454;2023-05-18T11:24:18;19.70;68.60
19799;DHT22;10059;59.850;10.454;2023-05-18T11:26:47;19.70;66.10
19799;DHT22;10059;59.850;10.454;2023-05-18T11:29:19;19.60;68.80
19799;DHT22;10059;59.850;10.454;2023-05-18T11:31:49;20.50;68.10
19799;DHT22;10059;59.850;10.454;2023-05-18T11:34:44;19.80;63.60
19799;DHT22;10059;59.850;10.454;2023-05-18T11:37:12;20.30;65.70
19799;DHT22;10059;59.850;10.454;2023-05-18T11:39:40;19.70;67.50
19799;DHT22;10059;59.850;10.454;2023-05-18T11:42:08;19.50;65.50
19799;DHT22;10059;59.850;10.454;2023-05-18T11:44:36;19.30;64.70
19799;DHT22;10059;59.850;10.454;2023-05-18T11:47:07;19.70;69.10
19799;DHT22;10059;59.850;10.454;2023-05-18T11:49:42;18.60;70.10
19799;DHT22;10059;59.850;10.454;2023-05-18T11:52:15;18.70;72.10
19799;DHT22;10059;59.850;10.454;2023-05-18T11:54:44;18.80;71.20
19799;DHT22;10059;59.850;10.454;2023-05-18T11:57:14;19.00;66.60
19799;DHT22;10059;59.850;10.454;2023-05-18T11:59:43;20.10;65.30
19799;DHT22;10059;59.850;10.454;2023-05-18T12:02:17;19.20;69.10
19799;DHT22;10059;59.850;10.454;2023-05-18T12:04:46;18.80;69.10
19799;DHT22;10059;59.850;10.454;2023-05-18T12:07:16;19.30;69.70
19799;DHT22;10059;59.850;10.454;2023-05-18T12:09:44;19.90;66.30
19799;DHT22;10059;59.850;10.454;2023-05-18T12:12:13;20.60;64.50
19799;DHT22;10059;59.850;10.454;2023-05-18T12:14:42;20.50;63.40
19799;DHT22;10059;59.850;10.454;2023-05-18T12:17:09;21.00;62.70
19799;DHT22;10059;59.850;10.454;2023-05-18T12:19:43;20.10;64.90
19799;DHT22;10059;59.850;10.454;2023-05-18T12:22:10;19.50;65.00
19799;DHT22;10059;59.850;10.454;2023-05-18T12:24:38;19.80;68.20
19799;DHT22;10059;59.850;10.454;2023-05-18T12:27:06;19.30;70.30
19799;DHT22;10059;59.850;10.454;2023-05-18T12:29:36;19.40;70.20
19799;DHT22;10059;59.850;10.454;2023-05-18T12:32:07;19.60;71.20
19799;DHT22;10059;59.850;10.454;2023-05-18T12:34:35;19.90;66.60
19799;DHT22;10059;59.850;10.454;2023-05-18T12:37:04;20.00;63.80
19799;DHT22;10059;59.850;10.454;2023-05-18T12:39:31;19.90;68.40
19799;DHT22;10059;59.850;10.454;2023-05-18T12:42:12;19.30;68.70
19799;DHT22;10059;59.850;10.454;2023-05-18T12:44:40;18.80;69.90
19799;DHT22;10059;59.850;10.454;2023-05-18T12:47:09;18.70;71.40
19799;DHT22;10059;59.850;10.454;2023-05-18T12:49:37;18.90;70.10
19799;DHT22;10059;59.850;10.454;2023-05-18T12:52:10;19.30;69.20
19799;DHT22;10059;59.850;10.454;2023-05-18T12:54:47;18.70;70.70
19799;DHT22;10059;59.850;10.454;2023-05-18T12:57:19;18.50;69.90
19799;DHT22;10059;59.850;10.454;2023-05-18T12:59:50;18.40;72.10
19799;DHT22;10059;59.850;10.454;2023-05-18T13:02:27;18.80;71.70
19799;DHT22;10059;59.850;10.454;2023-05-18T13:05:01;19.10;71.00
19799;DHT22;10059;59.850;10.454;2023-05-18T13:07:30;18.50;70.70
19799;DHT22;10059;59.850;10.454;2023-05-18T13:10:04;18.50;72.90
19799;DHT22;10059;59.850;10.454;2023-05-18T13:12:38;17.80;73.10
19799;DHT22;10059;59.850;10.454;2023-05-18T13:15:13;18.00;74.70
19799;DHT22;10059;59.850;10.454;2023-05-18T13:17:53;19.00;73.30
19799;DHT22;10059;59.850;10.454;2023-05-18T13:20:20;17.80;73.00
19799;DHT22;10059;59.850;10.454;2023-05-18T13:22:50;17.90;75.20
19799;DHT22;10059;59.850;10.454;2023-05-18T13:25:17;17.50;74.40
19799;DHT22;10059;59.850;10.454;2023-05-18T13:27:44;17.60;76.30
19799;DHT22;10059;59.850;10.454;2023-05-18T13:30:13;18.40;74.90
19799;DHT22;10059;59.850;10.454;2023-05-18T13:32:40;17.90;75.60
19799;DHT22;10059;59.850;10.454;2023-05-18T13:35:07;17.20;75.10
19799;DHT22;10059;59.850;10.454;2023-05-18T13:37:34;17.20;76.00
19799;DHT22;10059;59.850;10.454;2023-05-18T13:40:03;17.40;76.20
19799;DHT22;10059;59.850;10.454;2023-05-18T13:42:31;17.50;76.20
19799;DHT22;10059;59.850;10.454;2023-05-18T13:44:58;17.70;76.90
19799;DHT22;10059;59.850;10.454;2023-05-18T13:47:25;17.50;75.10
19799;DHT22;10059;59.850;10.454;2023-05-18T13:49:52;17.60;76.30
19799;DHT22;10059;59.850;10.454;2023-05-18T13:52:18;18.00;76.10
19799;DHT22;10059;59.850;10.454;2023-05-18T13:54:45;17.20;77.00
19799;DHT22;10059;59.850;10.454;2023-05-18T13:57:14;17.10;76.30
19799;DHT22;10059;59.850;10.454;2023-05-18T13:59:41;17.10;78.60
19799;DHT22;10059;59.850;10.454;2023-05-18T14:02:08;17.60;78.00
19799;DHT22;10059;59.850;10.454;2023-05-18T14:04:35;17.50;76.40
19799;DHT22;10059;59.850;10.454;2023-05-18T14:07:02;17.30;76.70
19799;DHT22;10059;59.850;10.454;2023-05-18T14:09:29;17.40;76.50
19799;DHT22;10059;59.850;10.454;2023-05-18T14:11:56;17.30;76.90
19799;DHT22;10059;59.850;10.454;2023-05-18T14:14:25;17.60;76.10
19799;DHT22;10059;59.850;10.454;2023-05-18T14:16:52;17.70;78.20
19799;DHT22;10059;59.850;10.454;2023-05-18T14:19:19;17.80;77.30
19799;DHT22;10059;59.850;10.454;2023-05-18T14:21:46;17.00;77.70
19799;DHT22;10059;59.850;10.454;2023-05-18T14:24:13;17.30;76.90
19799;DHT22;10059;59.850;10.454;2023-05-18T14:26:40;17.60;76.80
19799;DHT22;10059;59.850;10.454;2023-05-18T14:29:07;17.70;76.60
19799;DHT22;10059;59.850;10.454;2023-05-18T14:31:35;17.10;76.50
19799;DHT22;10059;59.850;10.454;2023-05-18T14:34:02;17.00;77.70
19799;DHT22;10059;59.850;10.454;2023-05-18T14:36:29;17.30;77.20
19799;DHT22;10059;59.850;10.454;2023-05-18T14:38:55;17.40;76.80
19799;DHT22;10059;59.850;10.454;2023-05-18T14:41:22;17.40;76.40
19799;DHT22;10059;59.850;10.454;2023-05-18T14:43:49;17.50;77.40
19799;DHT22;10059;59.850;10.454;2023-05-18T14:46:18;17.20;78.80
19799;DHT22;10059;59.850;10.454;2023-05-18T14:48:46;17.00;78.00
19799;DHT22;10059;59.850;10.454;2023-05-18T14:51:13;17.10;77.30
19799;DHT22;10059;59.850;10.454;2023-05-18T14:53:40;17.50;78.60
19799;DHT22;10059;59.850;10.454;2023-05-18T14:56:07;17.00;77.70
19799;DHT22;10059;59.850;10.454;2023-05-18T14:58:35;17.00;77.50
19799;DHT22;10059;59.850;10.454;2023-05-18T15:01:01;17.00;78.40
19799;DHT22;10059;59.850;10.454;2023-05-18T15:03:28;17.10;78.00
19799;DHT22;10059;59.850;10.454;2023-05-18T15:05:57;17.00;79.40
19799;DHT22;10059;59.850;10.454;2023-05-18T15:08:23;17.00;78.60
19799;DHT22;10059;59.850;10.454;2023-05-18T15:10:51;17.10;79.40
19799;DHT22;10059;59.850;10.454;2023-05-18T15:13:18;17.10;78.70
19799;DHT22;10059;59.850;10.454;2023-05-18T15:15:45;17.50;79.00
19799;DHT22;10059;59.850;10.454;2023-05-18T15:18:12;17.30;77.70
19799;DHT22;10059;59.850;10.454;2023-05-18T15:20:39;17.20;78.60
19799;DHT22;10059;59.850;10.454;2023-05-18T15:23:09;16.80;79.00
19799;DHT22;10059;59.850;10.454;2023-05-18T15:25:36;17.10;80.80
19799;DHT22;10059;59.850;10.454;2023-05-18T15:28:03;17.20;78.60
19799;DHT22;10059;59.850;10.454;2023-05-18T15:30:30;16.90;78.40
19799;DHT22;10059;59.850;10.454;2023-05-18T15:32:57;16.80;78.20